Diamond Lake, Indiana
Current Conditions -  °F | °C
As of 6:53 PM on Tuesday 25 Nov 2014 (Local Time) from KGSH Reporting Station
Overcast Overcast  
Wind Chill: 19°   Ceiling: 2200
Heat Index: 26°   Visibility: 10mi
Dew Point: 18°   Wind: 6mph
Humidity: 71%   Direction: 240°WSW
Pressure: 30.16"   Gusts: NA
Location:  41.4818°N, 85.481°W
Report Text: KGSH 252353Z AUTO 24005KT 10SM OVC022 M03/M08 A3016 RMK AO2 SLPNO T10331078 51012
Loading
Personal Weather Stations






























Interactive Weather Map New forecast layout! Learn more

10-Day Weather Forecast

Advertisements
Track Severe Weather on mobile